Time;durP1;ratioP1;P1;durP2;ratioP2;P2;SDS_P1;SDS_P2;PMS_P1;PMS_P2;Temp;Humidity;BMP_temperature;BMP_pressure;BME280_temperature;BME280_humidity;BME280_pressure;Samples;Min_cycle;Max_cycle;Signal;HPM_P1;HPM_P2
2022/01/11 00:01:44;;;;;;;3.15;2.67;;;4.30;1.00;;;;;;5137430;27;20035;-75
2022/01/11 00:04:12;;;;;;;6.10;2.95;;;4.30;1.00;;;;;;5136879;27;20070;-75
2022/01/11 00:06:45;;;;;;;4.97;2.95;;;4.30;1.00;;;;;;5137136;27;20031;-76
2022/01/11 00:11:47;;;;;;;4.30;3.05;;;4.10;1.00;;;;;;5136832;27;20058;-76
2022/01/11 00:14:13;;;;;;;3.22;2.90;;;4.10;1.00;;;;;;5136782;27;20031;-76
2022/01/11 00:16:39;;;;;;;5.78;3.03;;;4.10;1.00;;;;;;5136927;27;20038;-75
2022/01/11 00:19:09;;;;;;;5.75;3.10;;;4.00;1.00;;;;;;5136840;27;20493;-76
2022/01/11 00:21:39;;;;;;;6.32;3.03;;;4.10;1.00;;;;;;5136358;27;20129;-75
2022/01/11 00:26:50;;;;;;;5.90;2.75;;;4.10;1.00;;;;;;5136227;27;20100;-76
2022/01/11 00:29:16;;;;;;;5.05;2.92;;;4.10;1.00;;;;;;5137143;27;20092;-75
2022/01/11 00:31:44;;;;;;;5.68;2.88;;;4.10;1.00;;;;;;5136111;27;20030;-75
2022/01/11 00:34:10;;;;;;;3.88;2.75;;;4.10;1.00;;;;;;5136857;27;20035;-76
2022/01/11 00:36:42;;;;;;;3.88;3.47;;;3.90;1.00;;;;;;5129748;27;20028;-75
2022/01/11 00:39:12;;;;;;;5.20;3.53;;;3.80;1.00;;;;;;5116026;28;20122;-75
2022/01/11 00:41:40;;;;;;;5.75;3.35;;;3.90;1.00;;;;;;5115761;28;20062;-76
2022/01/11 00:44:07;;;;;;;6.03;3.13;;;3.80;1.00;;;;;;5115422;28;20036;-74
2022/01/11 00:46:33;;;;;;;4.40;3.80;;;3.70;1.00;;;;;;5115566;28;20028;-76
2022/01/11 00:48:59;;;;;;;5.38;3.55;;;3.80;1.00;;;;;;5115780;28;20099;-75
2022/01/11 00:51:25;;;;;;;7.55;3.47;;;3.70;5.30;;;;;;5115634;28;20039;-75
2022/01/11 00:53:51;;;;;;;5.22;3.70;;;3.60;1.00;;;;;;5115836;28;20188;-75
2022/01/11 00:56:17;;;;;;;4.88;3.38;;;3.60;1.00;;;;;;5115471;28;20066;-74
2022/01/11 00:58:43;;;;;;;5.18;3.33;;;3.70;1.00;;;;;;5115128;28;20067;-75
2022/01/11 01:01:09;;;;;;;3.75;3.15;;;3.70;1.00;;;;;;5115642;28;20038;-75
2022/01/11 01:03:36;;;;;;;4.50;3.20;;;3.70;1.00;;;;;;5115249;28;20110;-76
2022/01/11 01:06:02;;;;;;;3.60;3.05;;;3.70;1.00;;;;;;5115069;28;20031;-75
2022/01/11 01:08:28;;;;;;;4.57;2.80;;;3.80;1.00;;;;;;5115337;28;20090;-75
2022/01/11 01:10:54;;;;;;;4.70;3.33;;;3.80;1.00;;;;;;5115276;28;20079;-75
2022/01/11 01:13:23;;;;;;;4.80;3.63;;;3.80;1.00;;;;;;5115938;28;20378;-75
2022/01/11 01:15:53;;;;;;;4.50;3.03;;;3.80;1.00;;;;;;5115816;28;20059;-75
2022/01/11 01:18:22;;;;;;;6.22;3.55;;;3.90;1.00;;;;;;5115424;28;20042;-75
2022/01/11 01:20:49;;;;;;;5.72;3.15;;;3.90;1.00;;;;;;5115528;28;20145;-75
2022/01/11 01:23:15;;;;;;;5.95;2.90;;;3.90;1.00;;;;;;5115163;28;20355;-75
2022/01/11 01:25:43;;;;;;;3.45;3.15;;;3.90;1.00;;;;;;5115411;28;20087;-75
2022/01/11 01:28:10;;;;;;;3.90;2.38;;;3.90;1.00;;;;;;5115098;28;20042;-75
2022/01/11 01:30:36;;;;;;;4.15;2.83;;;3.80;1.00;;;;;;5115729;28;20477;-75
2022/01/11 01:33:03;;;;;;;4.93;2.17;;;3.90;1.00;;;;;;5115142;28;20032;-75
2022/01/11 01:35:36;;;;;;;4.18;3.05;;;3.90;1.00;;;;;;5115228;28;20039;-76
2022/01/11 01:38:03;;;;;;;4.72;2.80;;;3.90;1.00;;;;;;5115286;28;20046;-75
2022/01/11 01:40:36;;;;;;;5.38;2.67;;;3.90;1.00;;;;;;5115390;28;20042;-76
2022/01/11 01:43:04;;;;;;;5.05;2.53;;;3.90;1.00;;;;;;5114905;28;20104;-76
2022/01/11 01:45:30;;;;;;;5.25;2.45;;;3.90;1.00;;;;;;5115202;28;20036;-75
2022/01/11 01:47:58;;;;;;;4.85;2.83;;;3.90;1.00;;;;;;5114709;28;20035;-75
2022/01/11 01:50:27;;;;;;;3.17;2.00;;;3.90;1.00;;;;;;5115421;28;20028;-76
2022/01/11 01:52:56;;;;;;;4.47;2.50;;;3.90;1.00;;;;;;5115014;28;20036;-75
2022/01/11 01:55:23;;;;;;;4.05;2.17;;;3.90;1.00;;;;;;5115127;28;20483;-75
2022/01/11 01:57:51;;;;;;;4.10;2.70;;;3.90;1.00;;;;;;5114696;28;20363;-75
2022/01/11 02:00:19;;;;;;;3.25;2.28;;;3.80;1.00;;;;;;5115716;28;20043;-75
2022/01/11 02:02:44;;;;;;;4.45;2.70;;;3.70;1.00;;;;;;5114593;28;20038;-75
2022/01/11 02:05:11;;;;;;;5.88;3.22;;;3.80;1.00;;;;;;5114760;28;20378;-76
2022/01/11 02:07:37;;;;;;;6.18;2.53;;;3.70;1.00;;;;;;5115052;28;20110;-75
2022/01/11 02:10:06;;;;;;;4.40;2.85;;;3.70;1.00;;;;;;5115010;28;20433;-75
2022/01/11 02:12:32;;;;;;;3.30;2.30;;;3.80;1.00;;;;;;5114242;28;20059;-75
2022/01/11 02:14:58;;;;;;;4.72;2.60;;;3.80;1.00;;;;;;5114347;28;20035;-75
2022/01/11 02:17:29;;;;;;;4.38;2.55;;;3.80;1.00;;;;;;5115800;28;20050;-76
2022/01/11 02:19:56;;;;;;;;;;;3.70;1.00;;;;;;5118435;28;20032;-75
2022/01/11 02:22:23;;;;;;;2.38;1.83;;;3.80;1.00;;;;;;5118440;28;19903;-76
2022/01/11 02:24:49;;;;;;;3.45;2.20;;;3.90;1.00;;;;;;5118139;28;20038;-75
2022/01/11 02:27:14;;;;;;;3.25;2.35;;;4.00;1.00;;;;;;5118523;28;20118;-75
2022/01/11 02:29:42;;;;;;;2.90;2.30;;;3.90;1.00;;;;;;5118421;28;20490;-75
2022/01/11 02:32:08;;;;;;;2.42;1.83;;;3.80;1.00;;;;;;5118233;28;20108;-75
2022/01/11 02:34:34;;;;;;;4.50;2.20;;;3.70;1.00;;;;;;5117803;28;20031;-76
2022/01/11 02:37:00;;;;;;;4.78;2.25;;;3.80;1.00;;;;;;5118364;28;20046;-75
2022/01/11 02:39:25;;;;;;;3.92;2.40;;;3.70;1.00;;;;;;5118385;28;20386;-75
2022/01/11 02:41:56;;;;;;;3.67;2.70;;;3.70;1.00;;;;;;5117840;28;20475;-75
2022/01/11 02:44:23;;;;;;;4.63;2.20;;;3.60;1.00;;;;;;5118069;28;20034;-75
2022/01/11 02:46:49;;;;;;;4.10;2.40;;;3.70;1.00;;;;;;5118279;28;20066;-75
2022/01/11 02:49:15;;;;;;;3.00;2.40;;;3.60;1.00;;;;;;5118051;28;20106;-75
2022/01/11 02:51:41;;;;;;;3.70;2.58;;;3.50;1.00;;;;;;5117636;28;20066;-75
2022/01/11 02:54:08;;;;;;;4.95;2.53;;;3.40;1.00;;;;;;5117853;28;20031;-74
2022/01/11 02:56:34;;;;;;;3.20;2.33;;;3.40;1.00;;;;;;5117779;28;20035;-76
2022/01/11 02:59:02;;;;;;;5.38;2.50;;;3.30;1.00;;;;;;5117594;28;20031;-75
2022/01/11 03:01:28;;;;;;;3.60;2.47;;;3.20;1.00;;;;;;5117733;28;20132;-75
2022/01/11 03:03:54;;;;;;;4.38;2.42;;;3.20;1.00;;;;;;5117849;28;20416;-75
2022/01/11 03:06:19;;;;;;;4.53;2.70;;;3.10;1.00;;;;;;5117644;28;20039;-76
2022/01/11 03:08:47;;;;;;;3.55;2.67;;;3.10;1.00;;;;;;5117260;28;20059;-75
2022/01/11 03:11:15;;;;;;;2.75;2.10;;;3.10;1.00;;;;;;5117552;28;20079;-75
2022/01/11 03:13:43;;;;;;;5.20;2.75;;;3.10;1.00;;;;;;5117397;28;20042;-75
2022/01/11 03:16:11;;;;;;;4.10;3.08;;;3.10;1.00;;;;;;5117678;28;20114;-75
2022/01/11 03:18:37;;;;;;;5.30;3.88;;;3.10;1.00;;;;;;5117392;28;20059;-75
2022/01/11 03:21:04;;;;;;;6.68;4.35;;;3.10;1.00;;;;;;5117437;28;20118;-75
2022/01/11 03:23:30;;;;;;;8.80;5.65;;;3.10;1.00;;;;;;5117502;28;20051;-75
2022/01/11 03:25:56;;;;;;;5.97;5.05;;;3.10;1.00;;;;;;5117580;28;20114;-75
2022/01/11 03:28:23;;;;;;;6.78;4.60;;;3.00;1.00;;;;;;5117092;28;20039;-76
2022/01/11 03:30:51;;;;;;;7.22;4.70;;;3.00;1.00;;;;;;5117474;28;20454;-75
2022/01/11 03:33:17;;;;;;;9.45;5.03;;;3.00;1.00;;;;;;5117348;28;20032;-75
2022/01/11 03:35:44;;;;;;;6.70;4.53;;;3.00;1.00;;;;;;5117259;28;20108;-75
2022/01/11 03:38:11;;;;;;;8.05;5.05;;;3.10;1.00;;;;;;5116842;28;20035;-75
2022/01/11 03:40:38;;;;;;;8.93;4.82;;;3.20;1.00;;;;;;5117392;28;20040;-75
2022/01/11 03:43:05;;;;;;;6.25;4.10;;;3.10;1.00;;;;;;5117200;28;20023;-75
2022/01/11 03:45:31;;;;;;;8.77;4.78;;;3.10;1.00;;;;;;5117219;28;20043;-75
2022/01/11 03:47:59;;;;;;;6.95;4.68;;;3.00;1.00;;;;;;5116960;28;20032;-76
2022/01/11 03:50:26;;;;;;;7.28;3.85;;;3.10;1.00;;;;;;5117104;28;20049;-75
2022/01/11 03:52:59;;;;;;;5.75;3.80;;;3.10;1.00;;;;;;5116598;28;20454;-75
2022/01/11 03:58:15;;;;;;;7.47;3.80;;;3.10;1.00;;;;;;5116465;28;20039;-75
2022/01/11 04:00:41;;;;;;;8.48;3.38;;;3.00;1.00;;;;;;5116551;28;20047;-75
2022/01/11 04:03:07;;;;;;;4.65;2.70;;;3.20;1.00;;;;;;5116548;28;20167;-75
2022/01/11 04:05:34;;;;;;;6.80;3.47;;;3.20;1.00;;;;;;5116744;28;20035;-74
2022/01/11 04:07:59;;;;;;;6.63;3.53;;;3.20;1.00;;;;;;5116617;28;20549;-75
2022/01/11 04:10:25;;;;;;;5.55;2.80;;;3.10;1.00;;;;;;5116344;28;20059;-75
2022/01/11 04:12:52;;;;;;;4.63;3.03;;;3.10;1.00;;;;;;5116712;28;20366;-76
2022/01/11 04:15:18;;;;;;;4.38;2.80;;;3.30;1.00;;;;;;5116319;28;20042;-75
2022/01/11 04:17:44;;;;;;;4.35;2.55;;;3.20;1.00;;;;;;5116102;28;20031;-75
2022/01/11 04:20:10;;;;;;;5.18;3.55;;;3.40;1.00;;;;;;5116717;28;20040;-75
2022/01/11 04:22:36;;;;;;;5.45;3.47;;;3.30;1.00;;;;;;5116342;28;20024;-75
2022/01/11 04:25:03;;;;;;;6.25;3.33;;;3.20;1.00;;;;;;5116111;28;20119;-75
2022/01/11 04:27:28;;;;;;;4.82;2.70;;;3.20;1.00;;;;;;5116300;28;20092;-75
2022/01/11 04:29:54;;;;;;;4.93;2.75;;;3.30;1.00;;;;;;5116508;28;20123;-75
2022/01/11 04:32:20;;;;;;;5.45;2.50;;;3.30;1.00;;;;;;5115956;28;20035;-75
2022/01/11 04:34:46;;;;;;;5.78;2.30;;;3.30;1.00;;;;;;5116093;28;20066;-75
2022/01/11 04:37:12;;;;;;;3.13;2.38;;;3.30;1.00;;;;;;5115815;28;20028;-75
2022/01/11 04:39:38;;;;;;;2.83;2.00;;;3.40;1.00;;;;;;5116205;28;20039;-75
2022/01/11 04:42:04;;;;;;;4.13;2.00;;;3.40;1.00;;;;;;5115260;28;20039;-75
2022/01/11 04:44:30;;;;;;;7.25;2.58;;;3.30;1.00;;;;;;5116308;28;20459;-75
2022/01/11 04:46:56;;;;;;;4.35;2.17;;;3.30;1.00;;;;;;5115703;28;20031;-75
2022/01/11 04:49:22;;;;;;;4.05;2.25;;;3.30;1.00;;;;;;5124982;27;20042;-75
2022/01/11 04:51:48;;;;;;;4.60;2.55;;;3.20;1.00;;;;;;5133534;27;20031;-75
2022/01/11 04:54:14;;;;;;;5.63;2.50;;;3.20;1.00;;;;;;5136455;27;20038;-75
2022/01/11 04:56:40;;;;;;;3.78;1.75;;;3.20;1.00;;;;;;5127400;27;20106;-75
2022/01/11 04:59:05;;;;;;;4.43;1.70;;;3.30;1.00;;;;;;5127488;27;20078;-75
2022/01/11 05:01:31;;;;;;;2.72;1.70;;;3.20;1.00;;;;;;5136396;27;20034;-75
2022/01/11 05:03:57;;;;;;;3.72;1.38;;;3.20;1.00;;;;;;5116352;27;20466;-75
2022/01/11 05:06:24;;;;;;;2.97;1.60;;;3.20;1.00;;;;;;5115720;28;20088;-76
2022/01/11 05:08:49;;;;;;;4.97;1.90;;;3.20;1.00;;;;;;5115900;28;20130;-76
2022/01/11 05:11:16;;;;;;;5.20;1.65;;;3.20;1.00;;;;;;5114987;28;20504;-76
2022/01/11 05:13:42;;;;;;;4.63;1.85;;;3.20;1.00;;;;;;5114922;28;20477;-77
2022/01/11 05:16:09;;;;;;;2.95;1.77;;;3.30;1.00;;;;;;5134009;27;20172;-77
2022/01/11 05:18:36;;;;;;;2.95;1.80;;;3.20;1.00;;;;;;5135532;27;20083;-76
2022/01/11 05:21:03;;;;;;;4.15;1.65;;;3.20;1.00;;;;;;5122214;27;20100;-76
2022/01/11 05:23:30;;;;;;;3.97;1.70;;;3.30;1.00;;;;;;5115128;28;20041;-76
2022/01/11 05:25:56;;;;;;;4.72;1.75;;;3.30;1.00;;;;;;5121238;27;20031;-75
2022/01/11 05:28:22;;;;;;;3.28;1.85;;;3.40;1.00;;;;;;5135673;27;20027;-74
2022/01/11 05:30:48;;;;;;;4.00;1.95;;;3.40;1.00;;;;;;5129270;28;20039;-76
2022/01/11 05:33:15;;;;;;;3.92;1.58;;;3.30;1.00;;;;;;5096469;28;20042;-75
2022/01/11 05:35:41;;;;;;;4.60;1.67;;;3.20;1.00;;;;;;5114942;28;20126;-75
2022/01/11 05:38:07;;;;;;;3.45;1.42;;;3.20;1.00;;;;;;5114596;28;20066;-75
2022/01/11 05:40:33;;;;;;;3.85;1.67;;;3.10;1.00;;;;;;5115041;28;20043;-75
2022/01/11 05:42:59;;;;;;;4.53;1.70;;;3.30;1.00;;;;;;5114645;28;20036;-75
2022/01/11 05:45:25;;;;;;;2.60;1.40;;;3.30;1.00;;;;;;5114973;28;20027;-75
2022/01/11 05:47:52;;;;;;;2.83;1.70;;;3.20;1.00;;;;;;5114743;28;20415;-75
2022/01/11 05:50:20;;;;;;;3.42;1.45;;;3.10;1.00;;;;;;5114969;28;20038;-75
2022/01/11 05:52:46;;;;;;;3.47;1.70;;;3.20;1.00;;;;;;5116738;28;20028;-75
2022/01/11 05:55:13;;;;;;;4.65;2.00;;;3.20;1.00;;;;;;5118974;28;20027;-76
2022/01/11 05:57:43;;;;;;;6.10;2.35;;;3.10;1.00;;;;;;5118885;28;20063;-75
2022/01/11 06:00:18;;;;;;;6.03;2.08;;;3.10;1.00;;;;;;5118959;28;20036;-76
2022/01/11 06:02:48;;;;;;;4.28;1.73;;;3.00;1.00;;;;;;5118811;28;20042;-75
2022/01/11 06:05:16;;;;;;;5.03;2.05;;;3.00;1.00;;;;;;5118754;28;20462;-75
2022/01/11 06:07:42;;;;;;;4.72;2.47;;;3.00;1.00;;;;;;5118766;28;20067;-76
2022/01/11 06:10:09;;;;;;;5.03;2.15;;;3.10;1.00;;;;;;5118599;28;20489;-76
2022/01/11 06:12:35;;;;;;;5.25;2.30;;;3.00;1.00;;;;;;5118920;28;20057;-75
2022/01/11 06:15:01;;;;;;;3.72;2.35;;;2.90;1.00;;;;;;5118661;28;20456;-75
2022/01/11 06:17:27;;;;;;;5.22;2.50;;;2.80;1.00;;;;;;5118825;28;20074;-75
2022/01/11 06:19:52;;;;;;;5.30;2.78;;;2.80;1.00;;;;;;5118813;28;20035;-76
2022/01/11 06:22:20;;;;;;;4.47;2.75;;;2.80;1.00;;;;;;5118772;28;20043;-75
2022/01/11 06:24:47;;;;;;;2.85;2.22;;;2.90;1.00;;;;;;5122986;27;20036;-75
2022/01/11 06:27:13;;;;;;;7.63;2.80;;;2.90;1.00;;;;;;5118356;28;20038;-76
2022/01/11 06:29:39;;;;;;;3.30;2.55;;;2.90;1.00;;;;;;5119661;27;20058;-75
2022/01/11 06:32:06;;;;;;;5.07;2.78;;;2.80;1.00;;;;;;5128134;27;20031;-76
2022/01/11 06:34:32;;;;;;;6.35;2.63;;;2.70;1.00;;;;;;5128778;27;20082;-74
2022/01/11 06:36:59;;;;;;;4.13;2.35;;;2.60;1.00;;;;;;5120502;27;20489;-75
2022/01/11 06:39:27;;;;;;;5.20;2.83;;;2.50;1.00;;;;;;5117523;28;20546;-76
2022/01/11 06:41:52;;;;;;;5.82;2.80;;;2.60;1.00;;;;;;5117263;28;20067;-76
2022/01/11 06:44:19;;;;;;;5.75;2.90;;;2.50;1.00;;;;;;5117744;28;20482;-76
2022/01/11 06:46:44;;;;;;;5.85;2.92;;;2.60;1.00;;;;;;5116273;28;20040;-76
2022/01/11 06:49:10;;;;;;;9.00;3.67;;;2.60;1.00;;;;;;5116728;28;20131;-76
2022/01/11 06:51:37;;;;;;;7.25;3.58;;;2.60;1.00;;;;;;5117445;28;20118;-76
2022/01/11 06:54:03;;;;;;;9.23;2.63;;;2.50;1.00;;;;;;5117035;28;20030;-76
2022/01/11 06:56:29;;;;;;;6.97;3.55;;;2.50;1.00;;;;;;5117405;28;20031;-76
2022/01/11 06:58:55;;;;;;;6.93;3.50;;;2.60;1.00;;;;;;5116953;28;20122;-76
2022/01/11 07:01:20;;;;;;;4.75;3.15;;;2.50;1.00;;;;;;5117600;28;20043;-76
2022/01/11 07:03:46;;;;;;;8.02;3.10;;;2.50;1.00;;;;;;5116539;28;20486;-76
2022/01/11 07:06:12;;;;;;;4.57;3.03;;;2.50;1.00;;;;;;5118215;28;20118;-76
2022/01/11 07:08:38;;;;;;;5.85;3.60;;;2.50;1.00;;;;;;5118189;28;20046;-76
2022/01/11 07:11:04;;;;;;;6.45;4.20;;;2.50;1.00;;;;;;5117557;28;20051;-76
2022/01/11 07:13:29;;;;;;;6.22;4.18;;;2.50;1.00;;;;;;5117567;28;20493;-76
2022/01/11 07:15:55;;;;;;;5.60;4.15;;;2.60;1.00;;;;;;5117618;28;20117;-76
2022/01/11 07:18:21;;;;;;;4.45;3.30;;;2.50;1.00;;;;;;5117231;28;20433;-76
2022/01/11 07:20:47;;;;;;;5.13;3.70;;;2.40;1.00;;;;;;5117896;28;20039;-75
2022/01/11 07:23:13;;;;;;;5.40;3.55;;;2.40;1.00;;;;;;5117322;28;20031;-76
2022/01/11 07:25:39;;;;;;;6.53;3.22;;;2.40;1.00;;;;;;5117007;28;20381;-75
2022/01/11 07:28:05;;;;;;;5.68;3.80;;;2.40;1.00;;;;;;5115416;28;20035;-75
2022/01/11 07:30:32;;;;;;;7.00;3.60;;;2.40;1.00;;;;;;5114755;28;20035;-75
2022/01/11 07:32:58;;;;;;;7.82;4.18;;;2.40;1.00;;;;;;5122424;27;20489;-75
2022/01/11 07:35:24;;;;;;;7.35;4.22;;;2.30;1.00;;;;;;5115581;28;20043;-75
2022/01/11 07:37:51;;;;;;;6.93;3.80;;;2.40;1.00;;;;;;5116532;28;20113;-75
2022/01/11 07:40:17;;;;;;;5.88;3.70;;;2.30;1.00;;;;;;5115262;28;20552;-75
2022/01/11 07:42:43;;;;;;;6.28;4.25;;;2.30;1.00;;;;;;5114803;28;20039;-76
2022/01/11 07:45:09;;;;;;;7.05;4.22;;;2.30;1.00;;;;;;5115007;28;20027;-75
2022/01/11 07:47:35;;;;;;;5.43;3.58;;;2.40;1.00;;;;;;5117758;27;20032;-76
2022/01/11 07:50:02;;;;;;;5.63;3.83;;;2.40;1.00;;;;;;5123218;27;20043;-75
2022/01/11 07:52:28;;;;;;;7.07;4.25;;;2.40;1.00;;;;;;5135178;27;20034;-76
2022/01/11 07:54:54;;;;;;;8.02;4.40;;;2.30;1.00;;;;;;5135126;27;20035;-76
2022/01/11 07:57:20;;;;;;;6.60;3.90;;;2.40;1.00;;;;;;5135329;27;20756;-75
2022/01/11 07:59:45;;;;;;;6.72;3.80;;;2.40;1.00;;;;;;5135128;27;20067;-75
2022/01/11 08:02:11;;;;;;;8.55;4.22;;;2.40;1.00;;;;;;5134929;27;20027;-76
2022/01/11 08:04:37;;;;;;;6.30;3.75;;;2.50;1.00;;;;;;5126375;27;20051;-75
2022/01/11 08:07:04;;;;;;;7.20;4.10;;;2.50;1.00;;;;;;5133590;27;20031;-75
2022/01/11 08:09:30;;;;;;;6.55;3.92;;;2.60;1.00;;;;;;5136628;27;20482;-75
2022/01/11 08:11:58;;;;;;;5.25;3.30;;;2.50;1.00;;;;;;5137269;27;20051;-75
2022/01/11 08:14:25;;;;;;;6.95;4.35;;;2.50;1.00;;;;;;5136819;27;20033;-75
2022/01/11 08:16:51;;;;;;;5.57;3.90;;;2.60;1.00;;;;;;5136975;27;20042;-74
2022/01/11 08:19:16;;;;;;;5.32;3.70;;;2.70;1.00;;;;;;5136672;27;20038;-74
2022/01/11 08:21:44;;;;;;;6.03;3.90;;;2.70;1.00;;;;;;5136679;27;20051;-75
2022/01/11 08:24:09;;;;;;;8.25;4.13;;;2.70;1.00;;;;;;5136683;27;20416;-74
2022/01/11 08:26:35;;;;;;;11.00;5.82;;;2.80;1.00;;;;;;5136640;27;20114;-74
2022/01/11 08:29:01;;;;;;;5.93;3.75;;;2.90;1.00;;;;;;5137199;27;20505;-75
2022/01/11 08:31:27;;;;;;;6.78;3.85;;;3.00;1.00;;;;;;5136537;27;20037;-75
2022/01/11 08:33:53;;;;;;;6.65;3.22;;;2.90;1.00;;;;;;5136077;27;20031;-74
2022/01/11 08:36:19;;;;;;;8.85;3.55;;;3.00;1.00;;;;;;5136150;27;20038;-74
2022/01/11 08:38:44;;;;;;;5.78;3.83;;;3.10;1.00;;;;;;5136062;27;20481;-74
2022/01/11 08:41:10;;;;;;;4.85;3.40;;;3.10;1.00;;;;;;5136313;27;20080;-74
2022/01/11 08:43:37;;;;;;;5.57;3.65;;;3.10;1.00;;;;;;5136303;27;20111;-74
2022/01/11 08:46:03;;;;;;;5.28;3.63;;;3.10;1.00;;;;;;5136342;27;20031;-74
2022/01/11 08:48:30;;;;;;;5.60;3.40;;;3.10;1.00;;;;;;5135829;27;20381;-74
2022/01/11 08:50:56;;;;;;;4.50;3.33;;;3.10;1.00;;;;;;5135908;27;20343;-74
2022/01/11 08:53:22;;;;;;;5.88;3.65;;;3.10;1.00;;;;;;5136042;27;20038;-74
2022/01/11 08:55:49;;;;;;;4.80;3.03;;;3.20;1.00;;;;;;5136127;27;20031;-74
2022/01/11 08:58:17;;;;;;;6.50;3.38;;;3.20;1.00;;;;;;5135832;27;20030;-74
2022/01/11 09:00:43;;;;;;;6.35;3.40;;;3.30;1.00;;;;;;5136661;27;20039;-74
2022/01/11 09:03:10;;;;;;;9.55;3.35;;;3.30;1.00;;;;;;5135854;27;20030;-74
2022/01/11 09:05:36;;;;;;;6.05;3.25;;;3.30;1.00;;;;;;5136335;27;20105;-74
2022/01/11 09:08:02;;;;;;;3.05;2.58;;;3.40;1.00;;;;;;5135637;27;20084;-74
2022/01/11 09:10:28;;;;;;;5.60;2.92;;;3.40;1.00;;;;;;5135992;27;20080;-74
2022/01/11 09:12:54;;;;;;;6.38;3.70;;;3.40;1.00;;;;;;5135912;27;20045;-74
2022/01/11 09:15:20;;;;;;;5.38;3.10;;;3.40;1.00;;;;;;5135838;27;20105;-74
2022/01/11 09:17:47;;;;;;;6.05;3.03;;;3.50;1.00;;;;;;5135516;27;20035;-74
2022/01/11 09:20:14;;;;;;;4.70;2.47;;;3.40;1.00;;;;;;5135780;27;20039;-74
2022/01/11 09:22:41;;;;;;;5.18;2.83;;;3.50;1.00;;;;;;5135484;27;20481;-74
2022/01/11 09:25:08;;;;;;;5.03;3.20;;;3.50;1.00;;;;;;5135725;27;20030;-75
2022/01/11 09:27:34;;;;;;;4.60;2.80;;;3.60;1.00;;;;;;5134988;27;20046;-74
2022/01/11 09:30:00;;;;;;;5.45;3.00;;;3.60;1.00;;;;;;5134992;27;20529;-74
2022/01/11 09:32:26;;;;;;;6.70;4.00;;;3.60;1.00;;;;;;5135232;27;20366;-74
2022/01/11 09:34:52;;;;;;;4.25;3.17;;;3.60;1.00;;;;;;5135053;28;20035;-74
2022/01/11 09:37:18;;;;;;;6.55;3.55;;;3.70;1.00;;;;;;5135368;28;20067;-74
2022/01/11 09:39:44;;;;;;;4.78;3.22;;;3.70;1.00;;;;;;5135114;28;20066;-74
2022/01/11 09:42:11;;;;;;;4.80;2.90;;;3.70;1.00;;;;;;5135200;28;20031;-73
2022/01/11 09:44:40;;;;;;;4.40;3.17;;;3.70;1.00;;;;;;5135481;27;20543;-74
2022/01/11 09:47:12;;;;;;;4.22;3.25;;;3.70;1.00;;;;;;5135435;28;20118;-73
2022/01/11 09:49:38;;;;;;;4.55;3.30;;;3.70;1.00;;;;;;5134954;28;20519;-74
2022/01/11 09:52:08;;;;;;;6.75;3.47;;;3.80;1.00;;;;;;5135433;27;20098;-74
2022/01/11 09:54:39;;;;;;;7.93;2.90;;;3.80;1.00;;;;;;5135539;27;20412;-74
2022/01/11 09:57:05;;;;;;;6.22;3.05;;;3.80;1.00;;;;;;5135311;28;20072;-74
2022/01/11 09:59:31;;;;;;;5.90;3.28;;;3.80;1.00;;;;;;5135006;28;20125;-74
2022/01/11 10:01:58;;;;;;;8.70;2.90;;;3.90;1.00;;;;;;5135307;28;20073;-75
2022/01/11 10:04:28;;;;;;;4.80;3.17;;;3.90;1.00;;;;;;5135025;28;20062;-75
2022/01/11 10:06:57;;;;;;;4.07;2.85;;;3.90;1.00;;;;;;5134887;28;20058;-75
2022/01/11 10:09:25;;;;;;;4.32;2.90;;;3.90;1.00;;;;;;5133901;28;20155;-75
2022/01/11 10:11:53;;;;;;;6.95;3.47;;;3.90;1.00;;;;;;5134816;28;20488;-74
2022/01/11 10:14:34;;;;;;;5.60;2.92;;;4.00;1.00;;;;;;5135212;28;20189;-75
2022/01/11 10:17:18;;;;;;;5.10;2.63;;;4.00;1.00;;;;;;5135108;28;20043;-75
2022/01/11 10:19:50;;;;;;;5.13;2.92;;;4.00;1.00;;;;;;5134571;28;20122;-76
2022/01/11 10:22:21;;;;;;;6.35;2.65;;;4.10;1.00;;;;;;5134583;28;20118;-76
2022/01/11 10:24:53;;;;;;;7.03;3.10;;;4.10;1.00;;;;;;5135928;28;20038;-76
2022/01/11 10:27:30;;;;;;;5.85;3.50;;;4.20;1.00;;;;;;5135421;28;20035;-76
2022/01/11 10:29:57;;;;;;;6.60;2.97;;;4.20;1.00;;;;;;5135953;28;20050;-76
2022/01/11 10:32:28;;;;;;;11.05;4.18;;;4.20;1.00;;;;;;5135230;27;20031;-76
2022/01/11 10:35:12;;;;;;;4.72;2.20;;;4.20;1.00;;;;;;5135004;28;20485;-75
2022/01/11 10:37:44;;;;;;;7.95;3.40;;;4.20;1.00;;;;;;5134984;27;20034;-75
2022/01/11 10:40:10;;;;;;;6.32;3.42;;;4.30;1.00;;;;;;5139270;27;20039;-74
2022/01/11 10:42:41;;;;;;;7.50;2.53;;;4.30;1.00;;;;;;5138998;27;20076;-75
2022/01/11 10:45:12;;;;;;;10.05;2.95;;;4.30;1.00;;;;;;5138682;27;20035;-75
2022/01/11 10:47:40;;;;;;;;;;;4.40;1.00;;;;;;5129569;27;20039;-75
2022/01/11 10:50:18;;;;;;;6.40;2.90;;;4.40;1.00;;;;;;5138024;27;19998;-75
2022/01/11 10:52:46;;;;;;;6.50;2.60;;;4.40;1.00;;;;;;5138375;27;20027;-75
2022/01/11 10:55:17;;;;;;;3.30;2.05;;;4.40;1.00;;;;;;5137819;27;20043;-75
2022/01/11 10:57:48;;;;;;;4.60;2.10;;;4.40;1.00;;;;;;5138090;27;20038;-75
2022/01/11 11:00:22;;;;;;;5.10;2.58;;;4.40;1.00;;;;;;5137659;27;20046;-75
2022/01/11 11:03:04;;;;;;;4.95;2.20;;;4.50;1.00;;;;;;5136903;27;20045;-75
2022/01/11 11:05:36;;;;;;;4.63;2.28;;;4.40;1.00;;;;;;5137579;27;20054;-74
2022/01/11 11:08:06;;;;;;;5.13;2.17;;;4.40;1.00;;;;;;5137555;27;20042;-75
2022/01/11 11:10:41;;;;;;;5.40;2.55;;;4.50;1.00;;;;;;5136966;27;20027;-75
2022/01/11 11:13:10;;;;;;;5.65;2.53;;;4.50;1.00;;;;;;5137558;27;20073;-75
2022/01/11 11:15:40;;;;;;;6.75;3.05;;;4.50;1.00;;;;;;5136966;27;20035;-75
2022/01/11 11:18:20;;;;;;;7.70;2.53;;;4.50;1.00;;;;;;5136209;27;20027;-75
2022/01/11 11:20:46;;;;;;;4.75;2.65;;;4.50;1.00;;;;;;5136812;27;20067;-75
2022/01/11 11:23:15;;;;;;;6.60;2.80;;;4.50;1.00;;;;;;5137198;27;20111;-74
2022/01/11 11:25:41;;;;;;;5.72;2.50;;;4.50;1.00;;;;;;5136563;27;20130;-75
2022/01/11 11:28:07;;;;;;;4.78;2.30;;;4.50;1.00;;;;;;5136499;27;20113;-75
2022/01/11 11:30:33;;;;;;;6.93;2.53;;;4.60;1.00;;;;;;5137172;27;20092;-75
2022/01/11 11:33:00;;;;;;;5.35;2.15;;;4.60;1.00;;;;;;5136233;27;20485;-75
2022/01/11 11:35:26;;;;;;;6.05;2.55;;;4.70;1.00;;;;;;5136673;27;20080;-75
2022/01/11 11:37:58;;;;;;;5.57;2.85;;;4.60;1.00;;;;;;5136637;27;20034;-75
2022/01/11 11:40:27;;;;;;;6.50;2.60;;;4.60;1.00;;;;;;5136792;27;20043;-75
2022/01/11 11:42:57;;;;;;;5.57;2.60;;;4.60;1.00;;;;;;5136136;27;20023;-75
2022/01/11 11:45:30;;;;;;;7.72;2.72;;;4.60;1.00;;;;;;5136428;27;20088;-75
2022/01/11 11:48:08;;;;;;;5.47;2.50;;;4.60;1.00;;;;;;5136044;27;20042;-75
2022/01/11 11:50:53;;;;;;;3.63;2.10;;;4.70;1.00;;;;;;5135423;27;20481;-75
2022/01/11 11:53:22;;;;;;;3.92;2.42;;;4.70;1.00;;;;;;5136718;27;20034;-75
2022/01/11 11:55:48;;;;;;;5.13;2.85;;;4.70;1.00;;;;;;5136413;27;20057;-75
2022/01/11 11:58:22;;;;;;;6.10;3.47;;;4.60;1.00;;;;;;5135659;27;20041;-75
2022/01/11 12:00:50;;;;;;;10.35;3.10;;;4.70;1.00;;;;;;5135959;27;20126;-75
2022/01/11 12:03:16;;;;;;;2.65;1.90;;;4.80;1.00;;;;;;5135731;27;20031;-75
2022/01/11 12:05:47;;;;;;;6.30;2.75;;;4.90;1.00;;;;;;5136224;27;20079;-75
2022/01/11 12:08:27;;;;;;;4.65;2.38;;;5.00;1.00;;;;;;5136276;27;20102;-75
2022/01/11 12:10:56;;;;;;;4.53;2.75;;;5.00;1.00;;;;;;5136085;27;20047;-75
2022/01/11 12:13:49;;;;;;;6.70;2.45;;;5.10;1.00;;;;;;5136928;27;20083;-75
2022/01/11 12:16:24;;;;;;;3.63;2.22;;;5.10;1.00;;;;;;5125772;27;20031;-75
2022/01/11 12:18:55;;;;;;;5.97;2.70;;;5.10;1.00;;;;;;5135884;27;20031;-75
2022/01/11 12:21:21;;;;;;;7.93;3.00;;;5.20;1.00;;;;;;5136361;27;20070;-75
2022/01/11 12:23:47;;;;;;;5.15;2.90;;;5.10;1.00;;;;;;5135716;27;20033;-75
2022/01/11 12:26:20;;;;;;;3.00;2.03;;;5.10;1.00;;;;;;5136236;27;20031;-75
2022/01/11 12:28:56;;;;;;;5.18;2.88;;;5.20;1.00;;;;;;5136630;27;20058;-75
2022/01/11 12:31:25;;;;;;;4.57;2.35;;;5.20;1.00;;;;;;5135190;27;20039;-75
2022/01/11 12:33:51;;;;;;;8.82;2.42;;;5.10;1.00;;;;;;5136033;27;20037;-75
2022/01/11 12:36:17;;;;;;;5.20;2.30;;;5.10;1.00;;;;;;5136224;27;20053;-75
2022/01/11 12:39:00;;;;;;;4.63;2.47;;;5.10;1.00;;;;;;5135857;27;20118;-75
2022/01/11 12:41:32;;;;;;;6.00;2.63;;;5.10;1.00;;;;;;5135935;27;20123;-75
2022/01/11 12:46:54;;;;;;;5.18;2.60;;;5.20;1.00;;;;;;5135034;27;20020;-75
2022/01/11 12:49:21;;;;;;;3.60;2.13;;;5.20;1.00;;;;;;5135714;27;20031;-75
2022/01/11 12:51:51;;;;;;;4.40;2.30;;;5.30;1.00;;;;;;5135003;27;20173;-74
2022/01/11 12:54:54;;;;;;;5.30;2.38;;;5.30;1.00;;;;;;5131489;27;20507;-74
2022/01/11 12:57:23;;;;;;;4.22;2.40;;;5.20;1.00;;;;;;5086016;27;20055;-74
2022/01/11 13:00:10;;;;;;;6.65;2.83;;;5.30;1.00;;;;;;5133983;27;20051;-74
2022/01/11 13:02:36;;;;;;;6.15;2.55;;;5.20;1.00;;;;;;5134110;27;20035;-74
2022/01/11 13:05:17;;;;;;;3.83;2.80;;;5.20;1.00;;;;;;5132176;27;20114;-74
2022/01/11 13:07:50;;;;;;;7.15;2.63;;;5.20;1.00;;;;;;5135018;27;20042;-75
2022/01/11 13:10:28;;;;;;;5.85;2.95;;;5.20;1.00;;;;;;5135797;27;20030;-75
2022/01/11 13:12:58;;;;;;;3.83;2.45;;;5.20;1.00;;;;;;5135923;27;20105;-75
2022/01/11 13:15:49;;;;;;;4.55;2.70;;;5.20;1.00;;;;;;5135994;27;20403;-73
2022/01/11 13:18:18;;;;;;;7.07;3.80;;;5.20;1.00;;;;;;5135792;27;20043;-75
2022/01/11 13:20:52;;;;;;;6.60;2.58;;;5.40;1.00;;;;;;5136013;27;20537;-75
2022/01/11 13:23:28;;;;;;;4.95;2.50;;;5.30;1.00;;;;;;5135955;27;20035;-76